Time;durP1;ratioP1;P1;durP2;ratioP2;P2;SDS_P1;SDS_P2;PMS_P1;PMS_P2;Temp;Humidity;BMP_temperature;BMP_pressure;BME280_temperature;BME280_humidity;BME280_pressure;Samples;Min_cycle;Max_cycle;Signal;HPM_P1;HPM_P2
2024/01/09 00:02:05;;;;;;;1999.90;999.90;;;0.70;99.90;;;;;;5031604;28;20037;-74
2024/01/09 00:04:31;;;;;;;1999.90;999.90;;;0.70;99.90;;;;;;5031553;28;20060;-74
2024/01/09 00:06:57;;;;;;;1999.90;999.90;;;0.70;99.90;;;;;;5036089;28;20475;-74
2024/01/09 00:09:23;;;;;;;1999.90;999.90;;;0.60;99.90;;;;;;5052120;28;20037;-74
2024/01/09 00:11:49;;;;;;;1999.90;999.90;;;0.60;99.90;;;;;;5051763;28;20044;-74
2024/01/09 00:14:16;;;;;;;1999.90;999.90;;;0.70;99.90;;;;;;5052048;28;20037;-74
2024/01/09 00:16:42;;;;;;;1999.90;999.90;;;0.70;99.90;;;;;;5050812;28;20448;-74
2024/01/09 00:19:08;;;;;;;1999.90;999.90;;;0.80;99.90;;;;;;5051403;28;20047;-74
2024/01/09 00:21:34;;;;;;;1999.90;999.90;;;0.80;99.90;;;;;;5051381;28;20455;-74
2024/01/09 00:24:00;;;;;;;1999.90;999.90;;;0.90;99.90;;;;;;5050860;28;20037;-73
2024/01/09 00:26:26;;;;;;;1999.90;999.90;;;0.80;99.90;;;;;;5051513;28;20451;-73
2024/01/09 00:28:53;;;;;;;1999.90;999.90;;;0.80;99.90;;;;;;5051642;28;20135;-74
2024/01/09 00:31:19;;;;;;;1999.90;999.90;;;0.80;99.90;;;;;;5050364;28;20025;-74
2024/01/09 00:33:45;;;;;;;1999.90;999.90;;;0.70;99.90;;;;;;5051271;28;20033;-73
2024/01/09 00:36:12;;;;;;;1999.90;999.90;;;0.70;99.90;;;;;;5051200;28;20036;-73
2024/01/09 00:38:38;;;;;;;1999.90;999.90;;;0.70;99.90;;;;;;5050975;28;20045;-73
2024/01/09 00:41:04;;;;;;;1999.90;999.90;;;0.70;99.90;;;;;;5051411;28;20513;-73
2024/01/09 00:43:30;;;;;;;1999.90;999.90;;;0.80;99.90;;;;;;5051655;28;20053;-74
2024/01/09 00:45:56;;;;;;;1999.90;999.90;;;0.80;99.90;;;;;;5047460;28;20570;-73
2024/01/09 00:48:22;;;;;;;1999.90;999.90;;;0.90;99.90;;;;;;5051818;28;20036;-73
2024/01/09 00:50:48;;;;;;;1999.90;999.90;;;0.90;99.90;;;;;;5050976;28;20037;-73
2024/01/09 00:53:14;;;;;;;1999.90;999.90;;;0.90;99.90;;;;;;5051809;28;20029;-73
2024/01/09 00:55:40;;;;;;;1999.90;999.90;;;0.90;99.90;;;;;;5051218;28;20048;-73
2024/01/09 00:58:06;;;;;;;1999.90;999.90;;;0.80;99.90;;;;;;5053491;28;20040;-74
2024/01/09 01:00:33;;;;;;;1999.90;999.90;;;0.80;99.90;;;;;;5054827;28;20483;-74
2024/01/09 01:02:59;;;;;;;1999.90;999.90;;;0.80;99.90;;;;;;5055727;28;20036;-73
2024/01/09 01:05:25;;;;;;;1999.90;999.90;;;0.90;99.90;;;;;;5054833;28;20041;-74
2024/01/09 01:07:51;;;;;;;1999.90;999.90;;;0.90;99.90;;;;;;5055658;28;20451;-74
2024/01/09 01:10:17;;;;;;;1999.90;999.90;;;0.90;99.90;;;;;;5055055;28;20037;-73
2024/01/09 01:12:43;;;;;;;1999.90;999.90;;;1.00;99.90;;;;;;5055073;28;20037;-73
2024/01/09 01:15:09;;;;;;;1999.90;999.90;;;1.10;99.90;;;;;;5054625;28;20391;-74
2024/01/09 01:17:35;;;;;;;1999.90;999.90;;;1.00;99.90;;;;;;5043684;28;20025;-74
2024/01/09 01:20:02;;;;;;;1999.90;999.90;;;1.00;99.90;;;;;;5054841;28;20048;-74
2024/01/09 01:22:28;;;;;;;1999.90;999.90;;;0.90;99.90;;;;;;5054188;28;20498;-73
2024/01/09 01:24:54;;;;;;;1999.90;999.90;;;0.90;99.90;;;;;;5054775;28;20423;-85
2024/01/09 01:27:20;;;;;;;1999.90;999.90;;;1.00;99.90;;;;;;5037753;28;20026;-85
2024/01/09 01:29:46;;;;;;;1999.90;999.90;;;0.90;99.90;;;;;;5055059;28;20056;-84
2024/01/09 01:32:12;;;;;;;1999.90;999.90;;;0.90;99.90;;;;;;5054681;28;20029;-84
2024/01/09 01:34:39;;;;;;;1999.90;999.90;;;0.90;99.90;;;;;;5055143;28;20044;-84
2024/01/09 01:37:05;;;;;;;1999.90;999.90;;;0.90;99.90;;;;;;5054760;28;20040;-84
2024/01/09 01:39:31;;;;;;;1999.90;999.90;;;0.90;99.90;;;;;;5054132;28;20483;-85
2024/01/09 01:41:57;;;;;;;1999.90;999.90;;;0.90;99.90;;;;;;5054437;28;20032;-84
2024/01/09 01:44:23;;;;;;;1999.90;999.90;;;0.90;99.90;;;;;;5054434;28;20511;-84
2024/01/09 01:46:49;;;;;;;1999.90;999.90;;;1.00;99.90;;;;;;5054516;28;20029;-84
2024/01/09 01:49:17;;;;;;;1999.90;999.90;;;0.90;99.90;;;;;;5053948;28;20068;-84
2024/01/09 01:51:44;;;;;;;1999.90;999.90;;;0.90;99.90;;;;;;5054500;28;20039;-84
2024/01/09 01:54:11;;;;;;;1999.90;999.90;;;0.90;99.90;;;;;;5053923;28;20032;-84
2024/01/09 01:56:37;;;;;;;1999.90;999.90;;;0.80;99.90;;;;;;5054057;28;20041;-84
2024/01/09 01:59:03;;;;;;;1999.90;999.90;;;0.80;99.90;;;;;;5053522;28;20040;-83
2024/01/09 02:01:29;;;;;;;1999.90;999.90;;;0.80;99.90;;;;;;5025383;28;20400;-84
2024/01/09 02:03:56;;;;;;;1999.90;999.90;;;0.90;99.90;;;;;;5033251;28;20041;-84
2024/01/09 02:06:22;;;;;;;1999.90;999.90;;;0.90;99.90;;;;;;5040180;28;20055;-84
2024/01/09 02:08:48;;;;;;;1999.90;999.90;;;0.90;99.90;;;;;;5053365;28;20037;-85
2024/01/09 02:11:15;;;;;;;1999.90;999.90;;;1.00;99.90;;;;;;5053117;28;20490;-84
2024/01/09 02:13:41;;;;;;;1999.90;999.90;;;1.00;99.90;;;;;;5053940;28;20055;-85
2024/01/09 02:16:07;;;;;;;1999.90;999.90;;;0.90;99.90;;;;;;5053465;28;20032;-85
2024/01/09 02:18:33;;;;;;;1999.90;999.90;;;0.90;99.90;;;;;;5054081;28;20029;-85
2024/01/09 02:20:59;;;;;;;1999.90;999.90;;;1.00;99.90;;;;;;5046889;28;20038;-85
2024/01/09 02:23:25;;;;;;;1999.90;999.90;;;1.00;99.90;;;;;;5034349;28;20030;-84
2024/01/09 02:25:52;;;;;;;1999.90;999.90;;;1.00;99.90;;;;;;5046841;28;20037;-76
2024/01/09 02:28:27;;;;;;;1999.90;999.90;;;0.90;99.90;;;;;;5016039;28;20045;-73
2024/01/09 02:30:54;;;;;;;1999.90;999.90;;;0.90;99.90;;;;;;5031869;28;20040;-74
2024/01/09 02:33:20;;;;;;;1999.90;999.90;;;0.90;99.90;;;;;;5015605;28;20048;-74
2024/01/09 02:35:47;;;;;;;1999.90;999.90;;;0.90;99.90;;;;;;5032356;28;20029;-74
2024/01/09 02:38:13;;;;;;;1999.90;999.90;;;0.90;99.90;;;;;;5034129;28;20036;-74
2024/01/09 02:40:39;;;;;;;1999.90;999.90;;;0.90;99.90;;;;;;5033513;28;20029;-73
2024/01/09 02:43:05;;;;;;;1999.90;999.90;;;0.90;99.90;;;;;;5042612;28;20052;-73
2024/01/09 02:45:31;;;;;;;1999.90;999.90;;;0.80;99.90;;;;;;5053093;28;20048;-73
2024/01/09 02:47:57;;;;;;;1999.90;999.90;;;0.80;99.90;;;;;;5053409;28;20344;-74
2024/01/09 02:50:23;;;;;;;1999.90;999.90;;;0.70;99.90;;;;;;5052903;28;20024;-74
2024/01/09 02:52:50;;;;;;;1999.90;999.90;;;0.70;99.90;;;;;;5053281;28;20395;-74
2024/01/09 02:55:16;;;;;;;1999.90;999.90;;;0.70;99.90;;;;;;5051254;28;20029;-74
2024/01/09 02:57:42;;;;;;;1999.90;999.90;;;0.70;99.90;;;;;;5051558;28;20119;-73
2024/01/09 03:00:08;;;;;;;1999.90;999.90;;;0.80;99.90;;;;;;5051977;28;20425;-73
2024/01/09 03:02:35;;;;;;;1999.90;999.90;;;0.80;99.90;;;;;;5050228;28;20906;-74
2024/01/09 03:05:03;;;;;;;1999.90;999.90;;;0.80;99.90;;;;;;5043653;28;20055;-74
2024/01/09 03:07:29;;;;;;;1999.90;999.90;;;0.80;99.90;;;;;;5038896;28;20029;-74
2024/01/09 03:09:55;;;;;;;1999.90;999.90;;;0.70;99.90;;;;;;5049029;28;20029;-73
2024/01/09 03:12:22;;;;;;;1999.90;999.90;;;0.80;99.90;;;;;;5050033;28;20055;-74
2024/01/09 03:14:48;;;;;;;1999.90;999.90;;;0.70;99.90;;;;;;5051451;28;20053;-74
2024/01/09 03:17:14;;;;;;;1999.90;999.90;;;0.80;99.90;;;;;;5050241;28;20029;-73
2024/01/09 03:19:40;;;;;;;1999.90;999.90;;;0.80;99.90;;;;;;5051267;28;20036;-73
2024/01/09 03:22:07;;;;;;;1999.90;999.90;;;0.80;99.90;;;;;;5032290;28;20050;-74
2024/01/09 03:24:33;;;;;;;1999.90;999.90;;;0.80;99.90;;;;;;5053392;28;20036;-74
2024/01/09 03:26:59;;;;;;;1999.90;999.90;;;0.80;99.90;;;;;;5055823;28;20036;-73
2024/01/09 03:29:25;;;;;;;1999.90;999.90;;;0.80;99.90;;;;;;5051489;28;20037;-74
2024/01/09 03:31:51;;;;;;;1999.90;999.90;;;0.70;99.90;;;;;;5050180;28;20036;-74
2024/01/09 03:34:17;;;;;;;1999.90;999.90;;;0.80;99.90;;;;;;5051369;28;20376;-74
2024/01/09 03:36:44;;;;;;;1999.90;999.90;;;0.80;99.90;;;;;;5022886;28;20097;-74
2024/01/09 03:39:11;;;;;;;1999.90;999.90;;;0.80;99.90;;;;;;5032834;28;20029;-74
2024/01/09 03:41:37;;;;;;;1999.90;999.90;;;0.80;99.90;;;;;;5044086;28;20037;-74
2024/01/09 03:44:03;;;;;;;1999.90;999.90;;;0.70;99.90;;;;;;5052386;28;20384;-74
2024/01/09 03:46:30;;;;;;;1999.90;999.90;;;0.80;99.90;;;;;;5040455;28;20045;-74
2024/01/09 03:48:56;;;;;;;1999.90;999.90;;;0.70;99.90;;;;;;5014710;28;20048;-74
2024/01/09 03:51:22;;;;;;;1999.90;999.90;;;0.70;99.90;;;;;;5038847;28;20037;-74
2024/01/09 03:53:48;;;;;;;1999.90;999.90;;;0.80;99.90;;;;;;5051170;28;20021;-74
2024/01/09 03:56:15;;;;;;;1999.90;999.90;;;0.70;99.90;;;;;;5051801;28;20422;-74
2024/01/09 03:58:41;;;;;;;1999.90;999.90;;;0.70;99.90;;;;;;5051755;28;20029;-74
2024/01/09 04:01:07;;;;;;;1999.90;999.90;;;0.70;99.90;;;;;;5051324;28;20036;-74
2024/01/09 04:03:33;;;;;;;1999.90;999.90;;;0.70;99.90;;;;;;5033191;28;20045;-74
2024/01/09 04:06:01;;;;;;;1999.90;999.90;;;0.80;99.90;;;;;;5050346;28;20064;-74
2024/01/09 04:08:27;;;;;;;1999.90;999.90;;;0.80;99.90;;;;;;5034576;28;20025;-74
2024/01/09 04:10:53;;;;;;;1999.90;999.90;;;0.80;99.90;;;;;;5046112;28;20044;-75
2024/01/09 04:13:19;;;;;;;1999.90;999.90;;;0.80;99.90;;;;;;5031932;28;20026;-74
2024/01/09 04:15:46;;;;;;;1999.90;999.90;;;0.80;99.90;;;;;;5029595;28;20041;-74
2024/01/09 04:18:12;;;;;;;1999.90;999.90;;;0.80;99.90;;;;;;5044402;28;20410;-74
2024/01/09 04:20:39;;;;;;;1999.90;999.90;;;0.80;99.90;;;;;;5045611;28;20391;-74
2024/01/09 04:23:06;;;;;;;1999.90;999.90;;;0.80;99.90;;;;;;5032098;28;20055;-74
2024/01/09 04:25:32;;;;;;;1999.90;999.90;;;0.80;99.90;;;;;;5044366;28;20053;-75
2024/01/09 04:27:58;;;;;;;1999.90;999.90;;;0.70;99.90;;;;;;5031762;28;20041;-74
2024/01/09 04:30:26;;;;;;;1999.90;999.90;;;0.70;99.90;;;;;;5031414;28;20036;-74
2024/01/09 04:32:52;;;;;;;1999.90;999.90;;;0.80;99.90;;;;;;5047838;28;20060;-75
2024/01/09 04:35:18;;;;;;;1999.90;999.90;;;0.80;99.90;;;;;;5049950;28;20040;-75
2024/01/09 04:37:45;;;;;;;1999.90;999.90;;;0.80;99.90;;;;;;5038847;28;20044;-75
2024/01/09 04:40:11;;;;;;;1999.90;999.90;;;0.70;99.90;;;;;;5051505;28;20044;-75
2024/01/09 04:42:37;;;;;;;1999.90;999.90;;;0.80;99.90;;;;;;5051249;28;20060;-75
2024/01/09 04:45:03;;;;;;;1999.90;999.90;;;0.80;99.90;;;;;;5050959;28;20041;-74
2024/01/09 04:47:29;;;;;;;1999.90;999.90;;;0.80;99.90;;;;;;5050228;28;20013;-75
2024/01/09 04:49:55;;;;;;;1999.90;999.90;;;0.80;99.90;;;;;;5051730;28;20060;-75
2024/01/09 04:52:22;;;;;;;1999.90;999.90;;;0.80;99.90;;;;;;5049843;28;20017;-75
2024/01/09 04:54:48;;;;;;;1999.90;999.90;;;0.90;99.90;;;;;;5051319;28;20048;-75
2024/01/09 04:57:14;;;;;;;1999.90;999.90;;;0.90;99.90;;;;;;5051055;28;20021;-75
2024/01/09 04:59:41;;;;;;;1999.90;999.90;;;0.90;99.90;;;;;;5050111;28;20060;-75
2024/01/09 05:02:07;;;;;;;1999.90;999.90;;;0.80;99.90;;;;;;5048864;28;20060;-75
2024/01/09 05:04:33;;;;;;;1999.90;999.90;;;0.80;99.90;;;;;;5051452;28;20048;-75
2024/01/09 05:06:59;;;;;;;1999.90;999.90;;;0.80;99.90;;;;;;5051260;28;20040;-75
2024/01/09 05:09:26;;;;;;;1999.90;999.90;;;0.80;99.90;;;;;;5051068;28;20033;-75
2024/01/09 05:11:52;;;;;;;1999.90;999.90;;;0.70;99.90;;;;;;5049593;28;20498;-75
2024/01/09 05:14:18;;;;;;;1999.90;999.90;;;0.80;99.90;;;;;;5051654;28;20029;-75
2024/01/09 05:16:44;;;;;;;1999.90;999.90;;;0.80;99.90;;;;;;5050686;28;20041;-75
2024/01/09 05:19:10;;;;;;;1999.90;999.90;;;0.90;99.90;;;;;;5050421;28;20032;-75
2024/01/09 05:21:36;;;;;;;1999.90;999.90;;;0.80;99.90;;;;;;5051261;28;20044;-74
2024/01/09 05:24:02;;;;;;;1999.90;999.90;;;0.80;99.90;;;;;;5050918;28;20033;-75
2024/01/09 05:26:29;;;;;;;1999.90;999.90;;;0.80;99.90;;;;;;5046551;28;20049;-75
2024/01/09 05:28:55;;;;;;;1999.90;999.90;;;0.80;99.90;;;;;;5049783;28;20409;-75
2024/01/09 05:31:22;;;;;;;1999.90;999.90;;;0.80;99.90;;;;;;5048685;28;20033;-75
2024/01/09 05:33:48;;;;;;;1999.90;999.90;;;0.70;99.90;;;;;;5050981;28;20463;-75
2024/01/09 05:36:22;;;;;;;1999.90;999.90;;;0.80;99.90;;;;;;5051026;28;20033;-75
2024/01/09 05:38:51;;;;;;;1999.90;999.90;;;0.80;99.90;;;;;;5049703;28;20052;-75
2024/01/09 05:41:23;;;;;;;1999.90;999.90;;;0.80;99.90;;;;;;5048792;28;20108;-75
2024/01/09 05:43:53;;;;;;;1999.90;999.90;;;0.80;99.90;;;;;;5051040;28;20147;-75
2024/01/09 05:46:22;;;;;;;1999.90;999.90;;;0.70;99.90;;;;;;5052017;28;19921;-73
2024/01/09 05:48:48;;;;;;;1999.90;999.90;;;0.80;99.90;;;;;;5054709;28;20040;-73
2024/01/09 05:51:14;;;;;;;1999.90;999.90;;;0.80;99.90;;;;;;5044585;28;20060;-75
2024/01/09 05:53:41;;;;;;;1999.90;999.90;;;0.80;99.90;;;;;;5038323;28;20037;-74
2024/01/09 05:56:07;;;;;;;1999.90;999.90;;;0.80;99.90;;;;;;5046256;28;20040;-75
2024/01/09 05:58:33;;;;;;;1999.90;999.90;;;0.80;99.90;;;;;;5034120;28;20038;-74
2024/01/09 06:00:59;;;;;;;1999.90;999.90;;;0.80;99.90;;;;;;5047913;28;20045;-74
2024/01/09 06:03:26;;;;;;;1999.90;999.90;;;0.80;99.90;;;;;;5054697;28;20136;-74
2024/01/09 06:05:52;;;;;;;1999.90;999.90;;;0.80;99.90;;;;;;5046990;28;20045;-73
2024/01/09 06:08:18;;;;;;;1999.90;999.90;;;0.80;99.90;;;;;;5047552;28;20029;-73
2024/01/09 06:10:44;;;;;;;1999.90;999.90;;;0.80;99.90;;;;;;5052179;28;20033;-74
2024/01/09 06:13:10;;;;;;;1999.90;999.90;;;0.80;99.90;;;;;;5053001;28;20033;-73
2024/01/09 06:15:36;;;;;;;1999.90;999.90;;;0.80;99.90;;;;;;5053625;28;20041;-74
2024/01/09 06:18:02;;;;;;;1999.90;999.90;;;0.70;99.90;;;;;;5024696;28;20036;-74
2024/01/09 06:20:28;;;;;;;1999.90;999.90;;;0.70;99.90;;;;;;5043702;28;20044;-74
2024/01/09 06:22:58;;;;;;;1999.90;999.90;;;0.70;99.90;;;;;;5054272;28;20032;-73
2024/01/09 06:25:24;;;;;;;1999.90;999.90;;;0.60;99.90;;;;;;5051859;28;20403;-74
2024/01/09 06:27:50;;;;;;;1999.90;999.90;;;0.70;99.90;;;;;;5054207;28;20033;-73
2024/01/09 06:30:16;;;;;;;1999.90;999.90;;;0.70;99.90;;;;;;5052857;28;20056;-74
2024/01/09 06:32:42;;;;;;;1999.90;999.90;;;0.70;99.90;;;;;;5053902;28;20482;-73
2024/01/09 06:35:08;;;;;;;56.50;51.93;;;0.60;99.90;;;;;;5053823;28;20025;-74
2024/01/09 06:37:34;;;;;;;62.63;57.53;;;0.60;99.90;;;;;;5052761;28;20044;-73
2024/01/09 06:40:00;;;;;;;71.27;66.20;;;0.60;99.90;;;;;;5051474;28;20025;-74
2024/01/09 06:42:27;;;;;;;94.43;88.07;;;0.70;99.90;;;;;;5053289;28;20060;-74
2024/01/09 06:44:53;;;;;;;69.13;64.20;;;0.70;99.90;;;;;;5053467;28;20025;-73
2024/01/09 06:47:19;;;;;;;116.63;109.27;;;0.70;99.90;;;;;;5052805;28;20033;-75
2024/01/09 06:49:45;;;;;;;98.40;91.83;;;0.50;99.90;;;;;;5053269;28;20032;-75
2024/01/09 06:52:11;;;;;;;96.37;89.87;;;0.50;99.90;;;;;;5053294;28;20490;-74
2024/01/09 06:54:37;;;;;;;155.67;146.07;;;0.60;99.90;;;;;;5050820;28;20049;-74
2024/01/09 06:57:03;;;;;;;118.00;110.37;;;0.70;99.90;;;;;;5037503;28;20026;-74
2024/01/09 06:59:29;;;;;;;56.77;51.93;;;0.70;99.90;;;;;;5033654;28;20036;-74
2024/01/09 07:01:55;;;;;;;115.17;107.47;;;0.70;99.90;;;;;;5048954;28;20033;-73
2024/01/09 07:04:21;;;;;;;80.90;75.10;;;0.70;99.90;;;;;;5050774;28;20028;-74
2024/01/09 07:06:47;;;;;;;109.07;101.57;;;0.80;99.90;;;;;;5051106;28;20037;-74
2024/01/09 07:09:14;;;;;;;89.43;82.77;;;0.70;99.90;;;;;;5052912;28;20028;-74
2024/01/09 07:11:40;;;;;;;49.60;45.03;;;0.70;99.90;;;;;;5051131;28;20041;-73
2024/01/09 07:14:07;;;;;;;116.87;109.43;;;0.70;99.90;;;;;;5053200;28;20519;-74
2024/01/09 07:16:33;;;;;;;73.73;69.33;;;0.60;99.90;;;;;;5040518;28;20400;-74
2024/01/09 07:18:59;;;;;;;63.93;58.73;;;0.50;99.90;;;;;;5052274;28;20033;-74
2024/01/09 07:21:25;;;;;;;84.07;77.73;;;0.40;99.90;;;;;;5034590;28;20387;-74
2024/01/09 07:23:51;;;;;;;82.80;76.70;;;0.50;99.90;;;;;;5052739;28;20033;-74
2024/01/09 07:26:17;;;;;;;87.63;81.23;;;0.50;99.90;;;;;;5041809;28;20380;-74
2024/01/09 07:28:43;;;;;;;95.27;88.73;;;0.50;99.90;;;;;;5046286;28;20040;-74
2024/01/09 07:31:09;;;;;;;79.87;74.17;;;0.50;99.90;;;;;;5052403;28;20487;-75
2024/01/09 07:33:36;;;;;;;78.77;72.70;;;0.50;99.90;;;;;;5052670;28;20029;-74
2024/01/09 07:36:02;;;;;;;76.40;70.40;;;0.50;99.90;;;;;;5051556;28;20065;-74
2024/01/09 07:38:28;;;;;;;112.30;104.57;;;0.60;99.90;;;;;;5045822;28;20482;-74
2024/01/09 07:40:55;;;;;;;140.83;131.73;;;0.60;99.90;;;;;;5051524;28;20037;-74
2024/01/09 07:43:21;;;;;;;71.10;65.23;;;0.70;99.90;;;;;;5049920;28;20045;-74
2024/01/09 07:45:47;;;;;;;67.93;61.83;;;0.60;99.90;;;;;;5051394;28;20053;-74
2024/01/09 07:48:13;;;;;;;69.07;64.90;;;0.60;99.90;;;;;;5050682;28;20040;-74
2024/01/09 07:50:39;;;;;;;132.03;123.63;;;0.50;99.90;;;;;;5052058;28;20033;-74
2024/01/09 07:53:05;;;;;;;74.47;68.20;;;0.40;99.90;;;;;;5051865;28;20475;-74
2024/01/09 07:55:31;;;;;;;72.70;66.67;;;0.40;99.90;;;;;;5052455;28;20033;-74
2024/01/09 07:58:00;;;;;;;70.43;65.07;;;0.40;99.90;;;;;;5049327;28;20052;-74
2024/01/09 08:00:26;;;;;;;69.23;64.20;;;0.40;99.90;;;;;;5049348;28;20048;-74
2024/01/09 08:02:53;;;;;;;115.77;107.67;;;0.40;99.90;;;;;;5050379;28;20029;-74
2024/01/09 08:05:19;;;;;;;80.57;74.80;;;0.40;99.90;;;;;;5051694;28;20040;-74
2024/01/09 08:07:45;;;;;;;83.03;76.50;;;0.50;99.90;;;;;;5049094;28;20515;-77
2024/01/09 08:10:11;;;;;;;93.70;86.77;;;0.40;99.90;;;;;;5049964;28;20044;-76
2024/01/09 08:12:37;;;;;;;87.50;81.00;;;0.40;99.90;;;;;;5049757;28;20041;-74
2024/01/09 08:15:04;;;;;;;112.77;105.17;;;0.30;99.90;;;;;;5043294;28;20029;-76
2024/01/09 08:17:30;;;;;;;110.10;102.47;;;0.30;99.90;;;;;;5048455;28;20032;-74
2024/01/09 08:19:56;;;;;;;79.87;73.47;;;0.40;99.90;;;;;;5050496;28;20492;-77
2024/01/09 08:22:22;;;;;;;133.23;124.50;;;0.40;99.90;;;;;;5052390;28;20029;-78
2024/01/09 08:24:48;;;;;;;57.37;52.13;;;0.40;99.90;;;;;;5052060;28;20388;-75
2024/01/09 08:27:14;;;;;;;61.07;55.63;;;0.50;99.90;;;;;;5051780;28;20044;-74
2024/01/09 08:29:43;;;;;;;61.10;55.83;;;0.60;99.90;;;;;;5049687;28;20411;-79
2024/01/09 08:32:11;;;;;;;88.30;81.67;;;0.60;99.90;;;;;;5049235;28;20064;-75
2024/01/09 08:34:37;;;;;;;49.37;44.97;;;1.30;99.90;;;;;;5051527;28;20025;-75
2024/01/09 08:37:03;;;;;;;69.80;64.00;;;0.90;99.90;;;;;;5040331;28;20045;-75
2024/01/09 08:39:29;;;;;;;60.53;55.53;;;0.80;99.90;;;;;;5050936;28;20025;-76
2024/01/09 08:41:55;;;;;;;73.50;68.00;;;0.80;99.90;;;;;;5050293;28;20056;-75
2024/01/09 08:44:22;;;;;;;73.47;67.40;;;0.70;99.90;;;;;;5049558;28;20029;-79
2024/01/09 08:46:48;;;;;;;85.87;79.50;;;0.70;99.90;;;;;;5024637;28;20048;-75
2024/01/09 08:49:14;;;;;;;74.93;68.93;;;0.70;99.90;;;;;;5051148;28;20044;-76
2024/01/09 08:51:40;;;;;;;84.23;77.67;;;0.80;99.90;;;;;;5048104;28;20060;-76
2024/01/09 08:54:07;;;;;;;73.63;68.10;;;0.70;99.90;;;;;;5050403;28;20036;-76
2024/01/09 08:56:33;;;;;;;75.73;69.43;;;0.70;99.90;;;;;;5046332;28;20038;-76
2024/01/09 08:58:59;;;;;;;70.30;64.60;;;0.70;99.90;;;;;;5051820;28;20386;-75
2024/01/09 09:01:25;;;;;;;78.70;72.20;;;0.70;99.90;;;;;;5046531;28;20037;-75
2024/01/09 09:03:51;;;;;;;112.53;104.47;;;0.70;99.90;;;;;;5049395;28;20423;-75
2024/01/09 09:06:18;;;;;;;84.53;78.13;;;0.70;99.90;;;;;;5040662;28;20052;-75
2024/01/09 09:08:44;;;;;;;56.27;52.27;;;0.70;99.90;;;;;;5033938;28;20032;-75
2024/01/09 09:11:14;;;;;;;74.97;68.93;;;0.80;99.90;;;;;;5032996;28;20025;-76
2024/01/09 09:13:42;;;;;;;82.57;76.27;;;0.70;99.90;;;;;;5050861;28;20037;-75
2024/01/09 09:16:08;;;;;;;63.43;59.57;;;0.70;99.90;;;;;;5048842;28;20400;-75
2024/01/09 09:18:34;;;;;;;109.33;101.47;;;0.70;99.90;;;;;;5050269;28;20029;-75
2024/01/09 09:21:03;;;;;;;89.47;82.43;;;0.80;99.90;;;;;;5052610;28;20399;-75
2024/01/09 09:23:29;;;;;;;112.93;105.60;;;0.80;99.90;;;;;;5036976;28;20044;-76
2024/01/09 09:25:55;;;;;;;101.13;93.97;;;0.80;99.90;;;;;;5054606;28;20037;-74
2024/01/09 09:28:21;;;;;;;84.60;78.20;;;0.70;99.90;;;;;;5054215;28;20036;-75
2024/01/09 09:30:47;;;;;;;143.43;134.80;;;0.80;99.90;;;;;;5053780;28;20048;-75
2024/01/09 09:33:13;;;;;;;82.87;77.50;;;0.80;99.90;;;;;;5050116;28;20044;-74
2024/01/09 09:35:39;;;;;;;172.87;162.27;;;0.70;99.90;;;;;;5053875;28;20029;-75
2024/01/09 09:38:05;;;;;;;153.83;144.10;;;0.70;99.90;;;;;;5054353;28;20060;-72
2024/01/09 09:40:31;;;;;;;135.10;125.80;;;0.70;99.90;;;;;;5054628;28;20044;-72
2024/01/09 09:42:58;;;;;;;105.10;97.97;;;0.70;99.90;;;;;;5054550;28;20475;-73
2024/01/09 09:45:27;;;;;;;146.67;137.47;;;0.80;99.90;;;;;;5052668;28;20037;-72
2024/01/09 09:47:54;;;;;;;130.87;122.40;;;0.80;99.90;;;;;;5052019;28;20036;-73
2024/01/09 09:50:20;;;;;;;88.67;81.83;;;0.80;99.90;;;;;;5036375;28;20033;-73
2024/01/09 09:52:47;;;;;;;123.53;115.07;;;0.80;99.90;;;;;;5053281;28;20075;-74
2024/01/09 09:55:14;;;;;;;122.60;114.27;;;0.90;99.90;;;;;;5052293;28;20383;-74
2024/01/09 09:57:40;;;;;;;112.10;104.13;;;1.00;99.90;;;;;;5042596;28;20040;-74
2024/01/09 10:00:08;;;;;;;116.23;107.73;;;1.10;99.90;;;;;;5053850;28;20028;-74
2024/01/09 10:02:34;;;;;;;102.13;94.73;;;1.00;99.90;;;;;;5034465;28;20041;-73
2024/01/09 10:05:10;;;;;;;123.63;115.73;;;1.10;99.90;;;;;;5053254;28;20498;-74
2024/01/09 10:07:38;;;;;;;70.97;65.90;;;1.00;99.90;;;;;;5051100;28;20198;-74
2024/01/09 10:10:05;;;;;;;143.70;134.60;;;0.90;99.90;;;;;;5053698;28;20028;-73
2024/01/09 10:12:31;;;;;;;104.80;97.17;;;0.90;99.90;;;;;;5051172;28;20035;-73
2024/01/09 10:15:04;;;;;;;159.57;149.50;;;0.90;99.90;;;;;;5047844;28;20506;-73
2024/01/09 10:17:31;;;;;;;96.97;89.73;;;0.90;99.90;;;;;;5033637;28;20029;-73
2024/01/09 10:19:57;;;;;;;119.60;111.27;;;1.00;99.90;;;;;;5050972;28;20036;-73
2024/01/09 10:22:23;;;;;;;97.03;90.20;;;1.10;99.90;;;;;;5044326;28;20021;-73
2024/01/09 10:24:50;;;;;;;98.37;91.27;;;1.10;99.90;;;;;;5035503;28;20037;-73
2024/01/09 10:27:19;;;;;;;103.73;96.23;;;1.10;99.90;;;;;;5035507;28;20049;-73
2024/01/09 10:29:45;;;;;;;133.93;125.20;;;1.10;99.90;;;;;;5053357;28;20036;-73
2024/01/09 10:32:15;;;;;;;176.60;165.77;;;1.10;99.90;;;;;;5034358;28;20056;-83
2024/01/09 10:34:42;;;;;;;145.70;136.23;;;1.00;99.90;;;;;;5051805;28;20048;-83
2024/01/09 10:37:08;;;;;;;130.20;121.70;;;1.00;99.90;;;;;;5052216;28;20036;-82
2024/01/09 10:39:34;;;;;;;111.07;103.20;;;1.10;99.90;;;;;;5053763;28;20463;-82
2024/01/09 10:42:06;;;;;;;122.27;113.50;;;1.20;99.90;;;;;;5052327;28;20048;-81
2024/01/09 10:44:32;;;;;;;132.07;123.20;;;1.30;99.90;;;;;;5053498;28;20033;-82
2024/01/09 10:47:00;;;;;;;123.03;114.57;;;1.30;99.90;;;;;;5021018;28;20053;-82
2024/01/09 10:49:26;;;;;;;154.77;144.87;;;1.20;99.90;;;;;;5035475;28;20052;-81
2024/01/09 10:51:53;;;;;;;126.30;117.80;;;1.20;99.90;;;;;;5031886;28;20036;-82
2024/01/09 10:54:19;;;;;;;170.33;159.63;;;1.20;99.90;;;;;;5053615;28;20062;-82
2024/01/09 10:56:46;;;;;;;161.43;151.17;;;1.20;99.90;;;;;;5052261;28;20511;-82
2024/01/09 10:59:14;;;;;;;138.30;129.20;;;1.10;99.90;;;;;;5052382;28;20032;-82
2024/01/09 11:01:40;;;;;;;172.97;161.97;;;1.20;99.90;;;;;;5050505;28;20041;-83
2024/01/09 11:04:07;;;;;;;158.60;148.43;;;1.30;99.90;;;;;;5052421;28;20040;-82
2024/01/09 11:06:35;;;;;;;140.30;130.90;;;1.40;99.90;;;;;;5041459;28;20504;-82
2024/01/09 11:09:04;;;;;;;175.77;164.63;;;1.40;99.90;;;;;;5051863;28;20036;-82
2024/01/09 11:11:33;;;;;;;125.67;117.20;;;1.30;99.90;;;;;;5051427;28;20041;-82
2024/01/09 11:14:03;;;;;;;124.13;114.87;;;1.40;99.90;;;;;;5051809;28;20029;-83
2024/01/09 11:16:32;;;;;;;128.57;119.80;;;1.30;99.90;;;;;;5051851;28;20044;-82
2024/01/09 11:18:58;;;;;;;139.00;128.90;;;1.30;99.90;;;;;;5051781;28;20044;-83
2024/01/09 11:21:25;;;;;;;96.37;89.13;;;1.40;99.90;;;;;;5051324;28;20368;-82
2024/01/09 11:23:54;;;;;;;115.77;107.50;;;1.60;99.90;;;;;;5052596;28;20045;-82
2024/01/09 11:26:21;;;;;;;71.80;65.67;;;1.60;99.90;;;;;;5052130;28;20047;-83
2024/01/09 11:28:47;;;;;;;143.27;133.47;;;1.60;99.90;;;;;;5049874;28;20072;-83
2024/01/09 11:31:16;;;;;;;106.43;98.83;;;1.40;99.90;;;;;;5037865;28;20040;-81
2024/01/09 11:33:43;;;;;;;116.30;107.93;;;1.30;99.90;;;;;;5050945;28;20045;-73
2024/01/09 11:36:11;;;;;;;102.13;94.53;;;1.30;99.90;;;;;;5026021;28;20033;-73
2024/01/09 11:38:37;;;;;;;69.83;63.73;;;1.30;99.90;;;;;;5036966;28;20045;-73
2024/01/09 11:41:04;;;;;;;73.73;67.57;;;1.40;99.90;;;;;;5042989;28;20030;-73
2024/01/09 11:44:00;;;;;;;113.17;106.47;;;1.40;99.90;;;;;;5030094;28;20052;-73
2024/01/09 11:46:29;;;;;;;128.57;119.27;;;1.40;99.90;;;;;;5041320;28;20435;-73
2024/01/09 11:48:55;;;;;;;84.50;77.87;;;1.30;99.90;;;;;;5052759;28;20045;-73
2024/01/09 11:51:23;;;;;;;99.37;92.23;;;1.40;99.90;;;;;;5052244;28;20052;-73
2024/01/09 11:53:49;;;;;;;59.37;54.23;;;1.50;99.90;;;;;;5051405;28;20387;-73
2024/01/09 11:56:16;;;;;;;107.67;100.10;;;1.40;99.90;;;;;;5051265;28;20052;-73
2024/01/09 11:58:43;;;;;;;92.10;85.37;;;1.50;99.90;;;;;;5033062;28;20045;-73
2024/01/09 12:01:09;;;;;;;120.97;112.23;;;1.50;99.90;;;;;;5044423;28;20033;-73
2024/01/09 12:03:35;;;;;;;96.43;89.30;;;1.50;99.90;;;;;;5050776;28;20029;-73
2024/01/09 12:06:02;;;;;;;93.27;86.50;;;1.60;99.90;;;;;;5044365;28;20079;-73
2024/01/09 12:08:29;;;;;;;87.70;80.93;;;1.60;99.90;;;;;;5029746;28;20048;-74
2024/01/09 12:10:55;;;;;;;93.33;86.40;;;1.60;99.90;;;;;;5030683;28;20033;-73
2024/01/09 12:13:21;;;;;;;117.47;109.00;;;1.50;99.90;;;;;;5042760;28;20033;-74
2024/01/09 12:15:47;;;;;;;97.23;89.53;;;1.50;99.90;;;;;;5045577;28;20381;-73